createdAt,value
2016-12-02T00:00:46.553Z,978.85
2016-12-02T00:01:55.260Z,978.77
2016-12-02T00:03:03.948Z,978.82
2016-12-02T00:04:12.708Z,978.83
2016-12-02T00:05:21.386Z,978.92
2016-12-02T00:06:30.070Z,978.85
2016-12-02T00:07:38.757Z,978.89
2016-12-02T00:08:47.438Z,978.98
2016-12-02T00:09:56.168Z,978.77
2016-12-02T00:11:04.849Z,978.8
2016-12-02T00:12:13.529Z,978.72
2016-12-02T00:13:22.210Z,978.78
2016-12-02T00:14:30.896Z,978.74
2016-12-02T00:15:39.578Z,978.71
2016-12-02T00:16:48.263Z,978.69
2016-12-02T00:17:56.953Z,978.76
2016-12-02T00:19:05.957Z,978.8
2016-12-02T00:20:14.636Z,978.81
2016-12-02T00:21:23.323Z,978.82
2016-12-02T00:22:32.005Z,978.76
2016-12-02T00:23:40.693Z,978.75
2016-12-02T00:24:49.385Z,978.83
2016-12-02T00:25:58.065Z,978.67
2016-12-02T00:27:06.761Z,978.63
2016-12-02T00:28:15.440Z,978.62
2016-12-02T00:29:24.114Z,978.66
2016-12-02T00:30:32.796Z,978.64
2016-12-02T00:31:41.480Z,978.69
2016-12-02T00:32:50.167Z,978.71
2016-12-02T00:33:58.847Z,978.75
2016-12-02T00:35:07.532Z,978.75
2016-12-02T00:36:16.214Z,978.72
2016-12-02T00:37:24.893Z,978.73
2016-12-02T00:38:33.577Z,978.75
2016-12-02T00:39:42.260Z,978.75
2016-12-02T00:40:50.940Z,978.75
2016-12-02T00:41:59.938Z,978.75
2016-12-02T00:43:08.621Z,978.8
2016-12-02T00:44:17.307Z,978.76
2016-12-02T00:45:25.995Z,978.78
2016-12-02T00:46:34.675Z,978.82
2016-12-02T00:47:43.358Z,978.85
2016-12-02T00:48:52.036Z,978.84
2016-12-02T00:50:00.717Z,978.87
2016-12-02T00:51:09.397Z,978.89
2016-12-02T00:52:18.075Z,978.88
2016-12-02T00:53:26.750Z,978.93
2016-12-02T00:54:35.428Z,978.88
2016-12-02T00:55:44.120Z,978.93
2016-12-02T00:56:52.803Z,978.97
2016-12-02T00:58:01.484Z,979.01
2016-12-02T00:59:10.199Z,978.99
2016-12-02T01:00:18.885Z,979.02
2016-12-02T01:01:27.566Z,979.07
2016-12-02T01:02:36.250Z,979.02
2016-12-02T01:03:44.928Z,979.05
2016-12-02T01:04:53.609Z,979
2016-12-02T01:06:02.289Z,978.99
2016-12-02T01:07:10.971Z,979
2016-12-02T01:08:19.679Z,979.04
2016-12-02T01:09:28.359Z,979.06
2016-12-02T01:10:37.049Z,979.13
2016-12-02T01:11:45.732Z,979.13
2016-12-02T01:12:54.411Z,979.11
2016-12-02T01:14:03.092Z,979.17
2016-12-02T01:15:11.770Z,979.3
2016-12-02T01:16:20.449Z,979.29
2016-12-02T01:17:29.133Z,979.31
2016-12-02T01:18:37.811Z,979.31
2016-12-02T01:19:46.497Z,979.35
2016-12-02T01:20:55.178Z,979.37
2016-12-02T01:22:03.860Z,979.37
2016-12-02T01:23:12.542Z,979.35
2016-12-02T01:24:21.553Z,979.38
2016-12-02T01:25:30.236Z,979.43
2016-12-02T01:26:38.921Z,979.41
2016-12-02T01:27:47.604Z,979.4
2016-12-02T01:28:56.295Z,979.38
2016-12-02T01:30:04.977Z,979.39
2016-12-02T01:31:13.664Z,979.49
2016-12-02T01:32:22.344Z,979.46
2016-12-02T01:33:31.024Z,979.48
2016-12-02T01:34:39.733Z,979.58
2016-12-02T01:35:48.412Z,979.58
2016-12-02T01:36:57.123Z,979.49
2016-12-02T01:38:05.808Z,979.56
2016-12-02T01:39:14.491Z,979.63
2016-12-02T01:40:23.483Z,979.68
2016-12-02T01:41:32.168Z,979.64
2016-12-02T01:42:40.851Z,979.6
2016-12-02T01:43:49.536Z,979.67
2016-12-02T01:44:58.215Z,979.72
2016-12-02T01:46:06.902Z,979.78
2016-12-02T01:47:15.586Z,979.8
2016-12-02T01:48:24.267Z,979.76
2016-12-02T01:49:32.952Z,979.81
2016-12-02T01:50:41.635Z,979.81
2016-12-02T01:51:50.315Z,979.82
2016-12-02T01:52:59.001Z,979.86
2016-12-02T01:54:07.686Z,979.83
2016-12-02T01:55:16.365Z,979.91
2016-12-02T01:56:25.045Z,979.93
2016-12-02T01:57:33.726Z,979.92
2016-12-02T01:58:42.450Z,979.9
2016-12-02T01:59:51.127Z,979.93
2016-12-02T02:00:59.810Z,979.99
2016-12-02T02:02:08.493Z,979.94
2016-12-02T02:03:17.173Z,979.96
2016-12-02T02:04:25.854Z,979.95
2016-12-02T02:05:34.543Z,979.99
2016-12-02T02:06:43.226Z,979.98
2016-12-02T02:07:51.903Z,980.03
2016-12-02T02:09:00.593Z,980.08
2016-12-02T02:10:09.276Z,980.06
2016-12-02T02:11:17.960Z,980.07
2016-12-02T02:12:26.637Z,980.09
2016-12-02T02:13:35.321Z,980.13
2016-12-02T02:14:44.010Z,980.1
2016-12-02T02:15:52.688Z,980.15
2016-12-02T02:17:01.368Z,980.2
2016-12-02T02:18:10.053Z,980.22
2016-12-02T02:19:18.746Z,980.33
2016-12-02T02:20:27.425Z,980.27
2016-12-02T02:21:36.109Z,980.28
2016-12-02T02:22:44.789Z,980.28
2016-12-02T02:23:53.470Z,980.22
2016-12-02T02:25:02.151Z,980.21
2016-12-02T02:26:10.832Z,980.27
2016-12-02T02:27:19.515Z,980.26
2016-12-02T02:28:28.199Z,980.3
2016-12-02T02:29:36.881Z,980.31
2016-12-02T02:30:45.571Z,980.31
2016-12-02T02:31:54.249Z,980.33
2016-12-02T02:33:02.930Z,980.44
2016-12-02T02:34:11.615Z,980.4
2016-12-02T02:35:20.298Z,980.39
2016-12-02T02:36:28.980Z,980.29
2016-12-02T02:37:37.659Z,980.35
2016-12-02T02:38:46.344Z,980.4
2016-12-02T02:39:55.032Z,980.44
2016-12-02T02:41:03.716Z,980.5
2016-12-02T02:42:12.399Z,980.53
2016-12-02T02:43:21.083Z,980.54
2016-12-02T02:44:29.769Z,980.44
2016-12-02T02:45:38.448Z,980.59
2016-12-02T02:46:47.150Z,980.57
2016-12-02T02:47:55.832Z,980.61
2016-12-02T02:49:04.518Z,980.64
2016-12-02T02:50:13.197Z,980.61
2016-12-02T02:51:21.887Z,980.57
2016-12-02T02:52:30.568Z,980.75
2016-12-02T02:53:39.246Z,980.71
2016-12-02T02:54:47.930Z,980.75
2016-12-02T02:55:56.610Z,980.72
2016-12-02T02:57:05.297Z,980.76
2016-12-02T02:58:13.975Z,980.78
2016-12-02T02:59:22.658Z,980.82
2016-12-02T03:00:31.343Z,980.81
2016-12-02T03:01:40.027Z,980.81
2016-12-02T03:02:48.712Z,980.81
2016-12-02T03:03:57.420Z,980.82
2016-12-02T03:05:06.452Z,980.8
2016-12-02T03:06:15.134Z,980.89
2016-12-02T03:07:23.821Z,980.86
2016-12-02T03:08:32.514Z,980.9
2016-12-02T03:09:41.199Z,980.92
2016-12-02T03:10:49.877Z,980.94
2016-12-02T03:11:58.558Z,980.95
2016-12-02T03:13:07.247Z,980.89
2016-12-02T03:14:15.930Z,980.89
2016-12-02T03:15:24.924Z,980.82
2016-12-02T03:16:33.610Z,980.83
2016-12-02T03:17:42.294Z,980.92
2016-12-02T03:18:50.979Z,980.93
2016-12-02T03:19:59.664Z,980.88
2016-12-02T03:21:08.349Z,980.95
2016-12-02T03:22:17.028Z,980.92
2016-12-02T03:23:25.710Z,980.92
2016-12-02T03:24:34.393Z,981.07
2016-12-02T03:25:43.077Z,981.08
2016-12-02T03:26:51.753Z,981.14
2016-12-02T03:28:00.439Z,981.13
2016-12-02T03:29:09.430Z,981.2
2016-12-02T03:30:18.111Z,981.19
2016-12-02T03:31:26.798Z,981.16
2016-12-02T03:32:35.482Z,981.29
2016-12-02T03:33:44.164Z,981.22
2016-12-02T03:34:52.845Z,981.31
2016-12-02T03:36:01.529Z,981.31
2016-12-02T03:37:10.212Z,981.28
2016-12-02T03:38:18.891Z,981.34
2016-12-02T03:39:27.573Z,981.39
2016-12-02T03:40:36.263Z,981.38
2016-12-02T03:41:44.969Z,981.37
2016-12-02T03:42:53.653Z,981.42
2016-12-02T03:44:02.335Z,981.46
2016-12-02T03:45:11.012Z,981.46
2016-12-02T03:46:19.697Z,981.52
2016-12-02T03:47:28.385Z,981.57
2016-12-02T03:48:37.072Z,981.58
2016-12-02T03:49:45.755Z,981.61
2016-12-02T03:50:54.436Z,981.5
2016-12-02T03:52:03.118Z,981.55
2016-12-02T03:53:11.833Z,981.55
2016-12-02T03:54:20.520Z,981.49
2016-12-02T03:55:29.199Z,981.6
2016-12-02T03:56:37.884Z,981.58
2016-12-02T03:57:46.597Z,981.59
2016-12-02T03:58:55.286Z,981.55
2016-12-02T04:00:03.967Z,981.58
2016-12-02T04:01:12.651Z,981.61
2016-12-02T04:02:21.336Z,981.64
2016-12-02T04:03:30.023Z,981.62
2016-12-02T04:04:38.709Z,981.65
2016-12-02T04:05:47.394Z,981.68
2016-12-02T04:06:56.081Z,981.75
2016-12-02T04:08:04.777Z,981.75
2016-12-02T04:09:13.465Z,981.74
2016-12-02T04:10:22.152Z,981.75
2016-12-02T04:11:30.835Z,981.75
2016-12-02T04:12:39.523Z,981.72
2016-12-02T04:13:48.205Z,981.87
2016-12-02T04:14:56.889Z,981.77
2016-12-02T04:16:05.578Z,981.76
2016-12-02T04:17:14.263Z,981.78
2016-12-02T04:18:22.954Z,981.7
2016-12-02T04:19:31.639Z,981.83
2016-12-02T04:20:40.318Z,981.82
2016-12-02T04:21:49.000Z,981.8
2016-12-02T04:22:57.688Z,981.8
2016-12-02T04:24:06.377Z,981.76
2016-12-02T04:25:15.059Z,981.81
2016-12-02T04:26:23.743Z,981.75
2016-12-02T04:27:32.443Z,981.7
2016-12-02T04:28:41.127Z,981.55
2016-12-02T04:29:49.809Z,981.64
2016-12-02T04:30:58.813Z,981.73
2016-12-02T04:32:07.497Z,981.63
2016-12-02T04:33:16.182Z,981.49
2016-12-02T04:34:24.897Z,981.8
2016-12-02T04:35:33.582Z,981.69
2016-12-02T04:36:42.272Z,981.9
2016-12-02T04:37:50.955Z,981.88
2016-12-02T04:38:59.674Z,981.8
2016-12-02T04:40:08.361Z,981.85
2016-12-02T04:41:17.044Z,981.82
2016-12-02T04:42:25.733Z,981.86
2016-12-02T04:43:34.419Z,981.88
2016-12-02T04:44:43.101Z,981.89
2016-12-02T04:45:51.784Z,981.9
2016-12-02T04:47:00.470Z,981.89
2016-12-02T04:48:09.155Z,981.89
2016-12-02T04:49:17.848Z,981.95
2016-12-02T04:50:26.537Z,982.01
2016-12-02T04:51:35.218Z,981.9
2016-12-02T04:52:43.915Z,981.98
2016-12-02T04:53:52.605Z,982.08
2016-12-02T04:55:01.294Z,982.01
2016-12-02T04:56:09.987Z,982.09
2016-12-02T04:57:18.681Z,981.95
2016-12-02T04:58:27.369Z,982.01
2016-12-02T04:59:36.057Z,982.06
2016-12-02T05:00:44.742Z,982.18
2016-12-02T05:01:53.427Z,982.21
2016-12-02T05:03:02.111Z,982.32
2016-12-02T05:04:10.795Z,982.39
2016-12-02T05:05:19.481Z,982.38
2016-12-02T05:06:28.171Z,982.36
2016-12-02T05:07:36.854Z,982.24
2016-12-02T05:08:45.551Z,982.39
2016-12-02T05:09:54.242Z,982.59
2016-12-02T05:11:02.931Z,982.38
2016-12-02T05:12:11.647Z,982.48
2016-12-02T05:13:20.700Z,982.4
2016-12-02T05:14:29.381Z,982.43
2016-12-02T05:15:38.094Z,982.43
2016-12-02T05:16:46.787Z,982.46
2016-12-02T05:17:55.473Z,982.59
2016-12-02T05:19:04.154Z,982.54
2016-12-02T05:20:12.832Z,982.63
2016-12-02T05:21:21.527Z,982.61
2016-12-02T05:22:30.211Z,982.64
2016-12-02T05:23:38.892Z,982.7
2016-12-02T05:24:47.591Z,982.7
2016-12-02T05:25:56.279Z,982.71
2016-12-02T05:27:04.967Z,982.8
2016-12-02T05:28:13.645Z,982.78
2016-12-02T05:29:22.331Z,982.79
2016-12-02T05:30:31.012Z,982.89
2016-12-02T05:31:39.699Z,982.73
2016-12-02T05:32:48.382Z,982.89
2016-12-02T05:33:57.091Z,982.87
2016-12-02T05:35:05.808Z,982.95
2016-12-02T05:36:14.489Z,983
2016-12-02T05:37:23.173Z,983.05
2016-12-02T05:38:31.858Z,983.04
2016-12-02T05:39:40.539Z,983.04
2016-12-02T05:40:49.223Z,983.06
2016-12-02T05:41:57.905Z,983.01
2016-12-02T05:43:06.592Z,983.11
2016-12-02T05:44:15.282Z,983.08
2016-12-02T05:45:23.963Z,983.07
2016-12-02T05:46:32.956Z,983.14
2016-12-02T05:47:41.664Z,983.15
2016-12-02T05:48:50.348Z,983.13
2016-12-02T05:49:59.058Z,983.17
2016-12-02T05:51:07.747Z,983.16
2016-12-02T05:52:16.439Z,983.18
2016-12-02T05:53:25.123Z,983.22
2016-12-02T05:54:33.811Z,983.22
2016-12-02T05:55:42.809Z,983.29
2016-12-02T05:56:51.494Z,983.3
2016-12-02T05:58:00.185Z,983.38
2016-12-02T05:59:08.870Z,983.37
2016-12-02T06:00:17.559Z,983.32
2016-12-02T06:01:26.252Z,983.37
2016-12-02T06:02:34.938Z,983.34
2016-12-02T06:03:43.621Z,983.35
2016-12-02T06:04:52.358Z,983.34
2016-12-02T06:06:01.050Z,983.38
2016-12-02T06:07:10.070Z,983.44
2016-12-02T06:08:18.756Z,983.46
2016-12-02T06:09:27.468Z,983.55
2016-12-02T06:10:36.158Z,983.59
2016-12-02T06:11:44.846Z,983.59
2016-12-02T06:12:53.538Z,983.64
2016-12-02T06:14:02.222Z,983.67
2016-12-02T06:15:10.910Z,983.76
2016-12-02T06:16:19.594Z,983.74
2016-12-02T06:17:28.312Z,983.76
2016-12-02T06:18:36.997Z,983.75
2016-12-02T06:19:45.683Z,983.76
2016-12-02T06:20:54.375Z,983.76
2016-12-02T06:22:03.059Z,983.79
2016-12-02T06:23:11.744Z,983.81
2016-12-02T06:24:20.426Z,983.86
2016-12-02T06:25:29.111Z,983.86
2016-12-02T06:26:37.793Z,983.93
2016-12-02T06:27:46.474Z,983.93
2016-12-02T06:28:55.160Z,983.94
2016-12-02T06:30:03.844Z,984.02
2016-12-02T06:31:12.524Z,984.07
2016-12-02T06:32:21.205Z,984.01
2016-12-02T06:33:29.988Z,984.06
2016-12-02T06:34:38.676Z,984.09
2016-12-02T06:35:47.387Z,984.1
2016-12-02T06:36:56.072Z,984.09
2016-12-02T06:38:04.751Z,984.09
2016-12-02T06:39:13.433Z,984.07
2016-12-02T06:40:22.459Z,984.12
2016-12-02T06:41:31.142Z,984.1
2016-12-02T06:42:39.834Z,984.03
2016-12-02T06:43:48.518Z,984.02
2016-12-02T06:44:57.204Z,984.03
2016-12-02T06:46:05.887Z,983.99
2016-12-02T06:47:14.573Z,983.98
2016-12-02T06:48:23.257Z,984.02
2016-12-02T06:49:31.939Z,984.03
2016-12-02T06:50:40.622Z,984.03
2016-12-02T06:51:49.312Z,984.06
2016-12-02T06:52:57.998Z,984.02
2016-12-02T06:54:06.686Z,984.04
2016-12-02T06:55:15.369Z,984.09
2016-12-02T06:56:24.053Z,984.11
2016-12-02T06:57:32.739Z,984.04
2016-12-02T06:58:41.425Z,984.05
2016-12-02T06:59:50.114Z,984.06
2016-12-02T07:00:58.800Z,984.08
2016-12-02T07:02:07.496Z,984.11
2016-12-02T07:03:16.184Z,984.11
2016-12-02T07:04:24.868Z,984.14
2016-12-02T07:05:33.549Z,984.17
2016-12-02T07:06:42.232Z,984.11
2016-12-02T07:07:50.915Z,984.14
2016-12-02T07:08:59.598Z,984.1
2016-12-02T07:10:08.284Z,984.2
2016-12-02T07:11:16.972Z,984.21
2016-12-02T07:12:25.655Z,984.27
2016-12-02T07:13:34.339Z,984.3
2016-12-02T07:14:43.056Z,984.32
2016-12-02T07:15:51.738Z,984.36
2016-12-02T07:17:00.424Z,984.42
2016-12-02T07:18:09.184Z,984.44
2016-12-02T07:19:17.875Z,984.41
2016-12-02T07:20:26.559Z,984.39
2016-12-02T07:21:35.278Z,984.44
2016-12-02T07:22:44.301Z,984.38
2016-12-02T07:23:52.989Z,984.4
2016-12-02T07:25:01.674Z,984.39
2016-12-02T07:26:10.366Z,984.42
2016-12-02T07:27:19.059Z,984.46
2016-12-02T07:28:27.746Z,984.44
2016-12-02T07:29:36.744Z,984.47
2016-12-02T07:30:45.434Z,984.56
2016-12-02T07:31:54.130Z,984.54
2016-12-02T07:33:02.811Z,984.59
2016-12-02T07:34:11.500Z,984.62
2016-12-02T07:35:20.181Z,984.59
2016-12-02T07:36:28.864Z,984.6
2016-12-02T07:37:37.548Z,984.68
2016-12-02T07:38:46.227Z,984.72
2016-12-02T07:39:54.914Z,984.71
2016-12-02T07:41:03.612Z,984.67
2016-12-02T07:42:12.293Z,984.64
2016-12-02T07:43:20.976Z,984.76
2016-12-02T07:44:29.691Z,984.76
2016-12-02T07:45:38.374Z,984.72
2016-12-02T07:46:47.057Z,984.72
2016-12-02T07:47:55.747Z,984.76
2016-12-02T07:49:04.430Z,984.73
2016-12-02T07:50:13.115Z,984.71
2016-12-02T07:51:21.792Z,984.75
2016-12-02T07:52:30.489Z,984.77
2016-12-02T07:53:39.171Z,984.88
2016-12-02T07:54:47.855Z,984.98
2016-12-02T07:55:56.557Z,984.95
2016-12-02T07:57:05.243Z,984.83
2016-12-02T07:58:14.241Z,984.9
2016-12-02T07:59:22.924Z,984.97
2016-12-02T08:00:31.617Z,984.99
2016-12-02T08:01:40.304Z,984.93
2016-12-02T08:02:49.026Z,984.99
2016-12-02T08:03:57.709Z,985.04
2016-12-02T08:05:06.395Z,985.04
2016-12-02T08:06:15.084Z,985.14
2016-12-02T08:07:23.766Z,985.2
2016-12-02T08:08:32.453Z,985.19
2016-12-02T08:09:41.134Z,985.28
2016-12-02T08:10:49.826Z,985.25
2016-12-02T08:11:58.509Z,985.24
2016-12-02T08:13:07.191Z,985.37
2016-12-02T08:14:15.876Z,985.34
2016-12-02T08:15:24.558Z,985.37
2016-12-02T08:16:33.241Z,985.43
2016-12-02T08:17:41.925Z,985.47
2016-12-02T08:18:50.604Z,985.54
2016-12-02T08:19:59.288Z,985.53
2016-12-02T08:21:07.981Z,985.52
2016-12-02T08:22:16.667Z,985.55
2016-12-02T08:23:25.355Z,985.57
2016-12-02T08:24:34.037Z,985.61
2016-12-02T08:25:42.727Z,985.56
2016-12-02T08:26:51.421Z,985.55
2016-12-02T08:28:00.113Z,985.64
2016-12-02T08:29:08.800Z,985.6
2016-12-02T08:30:17.480Z,985.63
2016-12-02T08:31:26.196Z,985.6
2016-12-02T08:32:34.888Z,985.66
2016-12-02T08:33:43.581Z,985.66
2016-12-02T08:34:52.277Z,985.7
2016-12-02T08:36:00.958Z,985.72
2016-12-02T08:37:09.646Z,985.77
2016-12-02T08:38:18.333Z,985.78
2016-12-02T08:39:27.044Z,985.8
2016-12-02T08:40:35.731Z,985.83
2016-12-02T08:41:44.417Z,985.82
2016-12-02T08:42:53.103Z,985.85
2016-12-02T08:44:02.105Z,985.87
2016-12-02T08:45:10.795Z,985.83
2016-12-02T08:46:19.801Z,985.88
2016-12-02T08:47:28.797Z,985.91
2016-12-02T08:48:37.492Z,985.89
2016-12-02T08:49:46.180Z,985.95
2016-12-02T08:50:54.868Z,985.91
2016-12-02T08:52:03.587Z,985.94
2016-12-02T08:53:12.305Z,985.91
2016-12-02T08:54:20.995Z,986.04
2016-12-02T08:55:29.682Z,986.04
2016-12-02T08:56:38.369Z,985.99
2016-12-02T08:57:47.084Z,986.09
2016-12-02T08:58:55.816Z,986.05
2016-12-02T09:00:04.814Z,986.09
2016-12-02T09:01:13.502Z,986.13
2016-12-02T09:02:22.186Z,986.15
2016-12-02T09:03:30.872Z,986.14
2016-12-02T09:04:39.556Z,986.13
2016-12-02T09:05:48.243Z,986.22
2016-12-02T09:06:56.927Z,986.18
2016-12-02T09:08:05.610Z,986.21
2016-12-02T09:09:14.297Z,986.16
2016-12-02T09:10:22.984Z,986.21
2016-12-02T09:11:31.679Z,986.19
2016-12-02T09:12:40.389Z,986.24
2016-12-02T09:13:49.075Z,986.26
2016-12-02T09:14:57.759Z,986.29
2016-12-02T09:16:06.450Z,986.28
2016-12-02T09:17:15.142Z,986.27
2016-12-02T09:18:23.826Z,986.27
2016-12-02T09:19:32.566Z,986.3
2016-12-02T09:20:41.249Z,986.35
2016-12-02T09:21:49.937Z,986.4
2016-12-02T09:22:58.651Z,986.28
2016-12-02T09:24:07.332Z,986.34
2016-12-02T09:25:16.019Z,986.35
2016-12-02T09:26:24.706Z,986.32
2016-12-02T09:27:33.396Z,986.32
2016-12-02T09:28:42.082Z,986.38
2016-12-02T09:29:50.770Z,986.37
2016-12-02T09:30:59.457Z,986.36
2016-12-02T09:32:08.142Z,986.39
2016-12-02T09:33:16.829Z,986.38
2016-12-02T09:34:25.510Z,986.39
2016-12-02T09:35:34.196Z,986.42
2016-12-02T09:36:42.885Z,986.43
2016-12-02T09:37:51.569Z,986.43
2016-12-02T09:39:00.250Z,986.45
2016-12-02T09:40:08.945Z,986.47
2016-12-02T09:41:17.639Z,986.43
2016-12-02T09:42:26.328Z,986.43
2016-12-02T09:43:35.022Z,986.52
2016-12-02T09:44:43.709Z,986.48
2016-12-02T09:45:52.426Z,986.54
2016-12-02T09:47:01.432Z,986.47
2016-12-02T09:48:10.125Z,986.56
2016-12-02T09:49:18.806Z,986.54
2016-12-02T09:50:27.802Z,986.56
2016-12-02T09:51:36.497Z,986.53
2016-12-02T09:52:45.180Z,986.58
2016-12-02T09:53:53.869Z,986.63
2016-12-02T09:55:02.561Z,986.62
2016-12-02T09:56:11.272Z,986.64
2016-12-02T09:57:19.956Z,986.69
2016-12-02T09:58:28.639Z,986.72
2016-12-02T09:59:37.325Z,986.72
2016-12-02T10:00:46.014Z,986.67
2016-12-02T10:01:54.726Z,986.74
2016-12-02T10:03:03.416Z,986.69
2016-12-02T10:04:12.100Z,986.7
2016-12-02T10:05:20.785Z,986.68
2016-12-02T10:06:29.471Z,986.72
2016-12-02T10:07:38.152Z,986.74
2016-12-02T10:08:46.836Z,986.7
2016-12-02T10:09:55.527Z,986.78
2016-12-02T10:11:04.216Z,986.74
2016-12-02T10:12:12.906Z,986.77
2016-12-02T10:13:21.600Z,986.78
2016-12-02T10:14:30.285Z,986.78
2016-12-02T10:15:38.975Z,986.77
2016-12-02T10:16:47.662Z,986.81
2016-12-02T10:17:56.351Z,986.77
2016-12-02T10:19:05.036Z,986.8
2016-12-02T10:20:13.725Z,986.86
2016-12-02T10:21:22.413Z,986.8
2016-12-02T10:22:31.104Z,986.85
2016-12-02T10:23:39.786Z,986.88
2016-12-02T10:24:48.510Z,986.85
2016-12-02T10:25:57.195Z,986.91
2016-12-02T10:27:05.878Z,986.88
2016-12-02T10:28:14.561Z,986.82
2016-12-02T10:29:23.243Z,986.88
2016-12-02T10:30:31.931Z,986.9
2016-12-02T10:31:40.620Z,986.85
2016-12-02T10:32:49.308Z,986.81
2016-12-02T10:33:57.995Z,986.79
2016-12-02T10:35:06.682Z,986.78
2016-12-02T10:36:15.375Z,986.85
2016-12-02T10:37:24.059Z,986.8
2016-12-02T10:38:32.747Z,986.89
2016-12-02T10:39:41.431Z,986.83
2016-12-02T10:40:50.122Z,986.85
2016-12-02T10:41:58.883Z,986.93
2016-12-02T10:43:07.571Z,986.93
2016-12-02T10:44:16.265Z,986.96
2016-12-02T10:45:24.955Z,986.97
2016-12-02T10:46:33.640Z,986.98
2016-12-02T10:47:42.325Z,986.92
2016-12-02T10:48:51.011Z,987
2016-12-02T10:49:59.706Z,986.94
2016-12-02T10:51:08.437Z,987.02
2016-12-02T10:52:17.245Z,987.05
2016-12-02T10:53:25.926Z,987.07
2016-12-02T10:54:34.613Z,987.04
2016-12-02T10:55:43.304Z,987.12
2016-12-02T10:56:51.994Z,987.09
2016-12-02T10:58:00.678Z,987
2016-12-02T10:59:09.798Z,987.08
2016-12-02T11:00:18.486Z,987.01
2016-12-02T11:01:27.173Z,987.03
2016-12-02T11:02:35.876Z,987.06
2016-12-02T11:03:44.564Z,987.04
2016-12-02T11:04:53.289Z,987.08
2016-12-02T11:06:01.991Z,987.12
2016-12-02T11:07:10.711Z,987.07
2016-12-02T11:08:24.656Z,987.13
2016-12-02T11:09:33.362Z,987.15
2016-12-02T11:10:42.053Z,987.2
2016-12-02T11:11:50.766Z,987.19
2016-12-02T11:12:59.457Z,987.22
2016-12-02T11:14:08.197Z,987.24
2016-12-02T11:15:16.884Z,987.26
2016-12-02T11:16:25.583Z,987.28
2016-12-02T11:17:34.270Z,987.25
2016-12-02T11:18:42.994Z,987.32
2016-12-02T11:19:51.785Z,987.35
2016-12-02T11:21:00.482Z,987.35
2016-12-02T11:22:09.172Z,987.35
2016-12-02T11:23:17.861Z,987.33
2016-12-02T11:24:26.547Z,987.37
2016-12-02T11:25:35.255Z,987.3
2016-12-02T11:26:44.122Z,987.27
2016-12-02T11:27:53.261Z,987.34
2016-12-02T11:29:01.955Z,987.29
2016-12-02T11:30:10.646Z,987.27
2016-12-02T11:31:19.568Z,987.33
2016-12-02T11:32:28.268Z,987.23
2016-12-02T11:33:36.958Z,987.24
2016-12-02T11:34:45.647Z,987.2
2016-12-02T11:35:54.343Z,987.23
2016-12-02T11:37:03.037Z,987.23
2016-12-02T11:38:11.727Z,987.2
2016-12-02T11:39:20.413Z,987.23
2016-12-02T11:40:29.414Z,987.23
2016-12-02T11:41:38.420Z,987.18
2016-12-02T11:42:47.111Z,987.15
2016-12-02T11:43:55.799Z,987.22
2016-12-02T11:45:04.491Z,987.19
2016-12-02T11:46:13.185Z,987.22
2016-12-02T11:47:21.874Z,987.18
2016-12-02T11:48:30.596Z,987.21
2016-12-02T11:49:39.284Z,987.18
2016-12-02T11:50:47.979Z,987.22
2016-12-02T11:51:56.687Z,987.3
2016-12-02T11:53:05.382Z,987.26
2016-12-02T11:54:14.072Z,987.3
2016-12-02T11:55:22.765Z,987.32
2016-12-02T11:56:31.467Z,987.32
2016-12-02T11:57:40.153Z,987.34
2016-12-02T11:58:48.847Z,987.42
2016-12-02T11:59:57.864Z,987.37
2016-12-02T12:01:06.559Z,987.41
2016-12-02T12:02:15.247Z,987.36
2016-12-02T12:03:23.940Z,987.46
2016-12-02T12:04:32.634Z,987.4
2016-12-02T12:05:41.327Z,987.43
2016-12-02T12:06:50.026Z,987.46
2016-12-02T12:07:58.730Z,987.39
2016-12-02T12:09:07.416Z,987.42
2016-12-02T12:10:16.103Z,987.43
2016-12-02T12:11:24.796Z,987.38
2016-12-02T12:12:33.511Z,987.39
2016-12-02T12:13:42.202Z,987.34
2016-12-02T12:14:50.889Z,987.37
2016-12-02T12:15:59.903Z,987.34
2016-12-02T12:17:08.604Z,987.35
2016-12-02T12:18:17.298Z,987.27
2016-12-02T12:19:26.307Z,987.27
2016-12-02T12:20:35.000Z,987.28
2016-12-02T12:21:43.697Z,987.33
2016-12-02T12:22:52.387Z,987.33
2016-12-02T12:24:01.079Z,987.32
2016-12-02T12:25:09.774Z,987.36
2016-12-02T12:26:18.466Z,987.41
2016-12-02T12:27:27.472Z,987.41
2016-12-02T12:28:36.162Z,987.41
2016-12-02T12:29:44.852Z,987.38
2016-12-02T12:30:53.541Z,987.44
2016-12-02T12:32:02.231Z,987.45
2016-12-02T12:33:10.925Z,987.43
2016-12-02T12:34:19.619Z,987.43
2016-12-02T12:35:28.310Z,987.5
2016-12-02T12:36:37.312Z,987.47
2016-12-02T12:37:46.010Z,987.5
2016-12-02T12:38:54.704Z,987.52
2016-12-02T12:40:03.405Z,987.46
2016-12-02T12:41:12.412Z,987.52
2016-12-02T12:42:21.114Z,987.52
2016-12-02T12:43:30.130Z,987.57
2016-12-02T12:44:38.822Z,987.53
2016-12-02T12:45:47.514Z,987.61
2016-12-02T12:46:56.205Z,987.58
2016-12-02T12:48:04.901Z,987.55
2016-12-02T12:49:13.592Z,987.58
2016-12-02T12:50:22.277Z,987.6
2016-12-02T12:51:30.965Z,987.63
2016-12-02T12:52:39.659Z,987.65
2016-12-02T12:53:48.355Z,987.67
2016-12-02T12:54:57.046Z,987.69
2016-12-02T12:56:06.049Z,987.68
2016-12-02T12:57:14.739Z,987.74
2016-12-02T12:58:23.431Z,987.76
2016-12-02T12:59:32.119Z,987.76
2016-12-02T13:00:40.820Z,987.74
2016-12-02T13:01:49.517Z,987.69
2016-12-02T13:02:58.213Z,987.72
2016-12-02T13:04:06.908Z,987.72
2016-12-02T13:05:15.598Z,987.75
2016-12-02T13:06:24.289Z,987.8
2016-12-02T13:07:33.295Z,987.79
2016-12-02T13:08:41.992Z,987.77
2016-12-02T13:09:50.688Z,987.81
2016-12-02T13:10:59.380Z,987.78
2016-12-02T13:12:08.070Z,987.78
2016-12-02T13:13:16.769Z,987.82
2016-12-02T13:14:25.485Z,987.89
2016-12-02T13:15:34.179Z,987.9
2016-12-02T13:16:42.875Z,987.89
2016-12-02T13:17:51.567Z,987.9
2016-12-02T13:19:00.256Z,987.91
2016-12-02T13:20:08.943Z,987.91
2016-12-02T13:21:17.655Z,987.89
2016-12-02T13:22:26.340Z,987.9
2016-12-02T13:23:35.028Z,987.85
2016-12-02T13:24:43.748Z,987.83
2016-12-02T13:25:52.442Z,987.84
2016-12-02T13:27:01.135Z,987.81
2016-12-02T13:28:09.825Z,987.8
2016-12-02T13:29:18.510Z,987.78
2016-12-02T13:30:27.199Z,987.77
2016-12-02T13:31:35.888Z,987.82
2016-12-02T13:32:44.574Z,987.82
2016-12-02T13:33:53.294Z,987.89
2016-12-02T13:35:01.988Z,987.9
2016-12-02T13:36:11.001Z,987.85
2016-12-02T13:37:19.689Z,987.89
2016-12-02T13:38:28.380Z,987.9
2016-12-02T13:39:37.069Z,987.88
2016-12-02T13:40:45.784Z,987.87
2016-12-02T13:41:54.471Z,987.87
2016-12-02T13:43:03.161Z,987.88
2016-12-02T13:44:11.846Z,987.87
2016-12-02T13:45:20.533Z,987.89
2016-12-02T13:46:29.222Z,987.9
2016-12-02T13:47:37.912Z,987.93
2016-12-02T13:48:46.603Z,987.96
2016-12-02T13:49:55.321Z,987.9
2016-12-02T13:51:04.011Z,987.93
2016-12-02T13:52:12.700Z,987.94
2016-12-02T13:53:21.388Z,987.95
2016-12-02T13:54:30.074Z,987.95
2016-12-02T13:55:38.760Z,987.95
2016-12-02T13:56:47.450Z,987.98
2016-12-02T13:57:56.139Z,987.97
2016-12-02T13:59:04.829Z,987.97
2016-12-02T14:00:13.512Z,988
2016-12-02T14:01:22.205Z,987.96
2016-12-02T14:02:30.889Z,988.02
2016-12-02T14:03:39.574Z,988.03
2016-12-02T14:04:48.267Z,987.97
2016-12-02T14:05:56.950Z,987.95
2016-12-02T14:07:05.645Z,987.99
2016-12-02T14:08:14.341Z,987.99
2016-12-02T14:09:23.029Z,987.99
2016-12-02T14:10:31.714Z,988.03
2016-12-02T14:11:40.400Z,988.11
2016-12-02T14:12:49.085Z,988.08
2016-12-02T14:13:57.770Z,988.13
2016-12-02T14:15:06.451Z,988.14
2016-12-02T14:16:15.134Z,988.14
2016-12-02T14:17:23.820Z,988.1
2016-12-02T14:18:32.506Z,988.12
2016-12-02T14:19:41.198Z,988.12
2016-12-02T14:20:49.879Z,988.15